sensor_id;sensor_type;location;lat;lon;timestamp;pressure;altitude;pressure_sealevel;temperature;humidity
11810;BME280;5962;41.566;23.734;2024-01-30T00:02:17;97129.97;;;1.43;48.54
11810;BME280;5962;41.566;23.734;2024-01-30T00:04:45;97140.69;;;1.40;48.75
11810;BME280;5962;41.566;23.734;2024-01-30T00:07:14;97140.72;;;1.31;48.97
11810;BME280;5962;41.566;23.734;2024-01-30T00:09:42;97148.44;;;1.32;48.86
11810;BME280;5962;41.566;23.734;2024-01-30T00:12:10;97152.97;;;1.30;49.09
11810;BME280;5962;41.566;23.734;2024-01-30T00:14:38;97148.97;;;1.26;49.35
11810;BME280;5962;41.566;23.734;2024-01-30T00:17:06;97152.53;;;1.25;48.57
11810;BME280;5962;41.566;23.734;2024-01-30T00:19:34;97148.19;;;1.16;49.21
11810;BME280;5962;41.566;23.734;2024-01-30T00:22:02;97148.72;;;1.10;49.80
11810;BME280;5962;41.566;23.734;2024-01-30T00:24:31;97151.31;;;1.20;49.40
11810;BME280;5962;41.566;23.734;2024-01-30T00:26:59;97153.50;;;1.15;49.23
11810;BME280;5962;41.566;23.734;2024-01-30T00:29:27;97146.09;;;1.10;49.60
11810;BME280;5962;41.566;23.734;2024-01-30T00:31:57;97152.97;;;1.11;49.67
11810;BME280;5962;41.566;23.734;2024-01-30T00:34:25;97144.59;;;1.17;49.22
11810;BME280;5962;41.566;23.734;2024-01-30T00:36:53;97143.91;;;1.15;49.74
11810;BME280;5962;41.566;23.734;2024-01-30T00:39:21;97139.66;;;1.14;49.97
11810;BME280;5962;41.566;23.734;2024-01-30T00:41:51;97142.41;;;1.13;49.33
11810;BME280;5962;41.566;23.734;2024-01-30T00:44:19;97143.66;;;1.18;49.31
11810;BME280;5962;41.566;23.734;2024-01-30T00:46:47;97139.13;;;1.11;50.30
11810;BME280;5962;41.566;23.734;2024-01-30T00:49:15;97145.41;;;1.08;50.03
11810;BME280;5962;41.566;23.734;2024-01-30T00:51:43;97135.66;;;1.10;50.46
11810;BME280;5962;41.566;23.734;2024-01-30T00:54:11;97128.25;;;1.15;50.20
11810;BME280;5962;41.566;23.734;2024-01-30T00:56:39;97138.28;;;1.10;50.48
11810;BME280;5962;41.566;23.734;2024-01-30T00:59:08;97128.66;;;1.20;50.17
11810;BME280;5962;41.566;23.734;2024-01-30T01:01:36;97130.28;;;1.21;49.89
11810;BME280;5962;41.566;23.734;2024-01-30T01:04:04;97125.75;;;1.23;50.06
11810;BME280;5962;41.566;23.734;2024-01-30T01:06:32;97126.19;;;1.19;50.46
11810;BME280;5962;41.566;23.734;2024-01-30T01:09:00;97119.19;;;1.19;50.05
11810;BME280;5962;41.566;23.734;2024-01-30T01:11:29;97119.19;;;1.19;50.23
11810;BME280;5962;41.566;23.734;2024-01-30T01:13:58;97116.28;;;1.22;50.31
11810;BME280;5962;41.566;23.734;2024-01-30T01:16:27;97107.63;;;1.22;50.42
11810;BME280;5962;41.566;23.734;2024-01-30T01:18:55;97111.91;;;1.23;49.97
11810;BME280;5962;41.566;23.734;2024-01-30T01:21:23;97108.59;;;1.30;49.83
11810;BME280;5962;41.566;23.734;2024-01-30T01:23:51;97109.00;;;1.26;49.86
11810;BME280;5962;41.566;23.734;2024-01-30T01:26:19;97105.72;;;1.24;49.93
11810;BME280;5962;41.566;23.734;2024-01-30T01:28:47;97107.09;;;1.18;49.95
11810;BME280;5962;41.566;23.734;2024-01-30T01:31:15;97112.44;;;1.17;50.12
11810;BME280;5962;41.566;23.734;2024-01-30T01:33:45;97110.94;;;1.14;50.09
11810;BME280;5962;41.566;23.734;2024-01-30T01:36:14;97088.72;;;1.01;50.47
11810;BME280;5962;41.566;23.734;2024-01-30T01:38:42;97095.56;;;1.11;50.18
11810;BME280;5962;41.566;23.734;2024-01-30T01:41:10;97098.44;;;1.18;50.28
11810;BME280;5962;41.566;23.734;2024-01-30T01:43:38;97098.84;;;1.23;50.08
11810;BME280;5962;41.566;23.734;2024-01-30T01:46:06;97093.38;;;1.16;50.52
11810;BME280;5962;41.566;23.734;2024-01-30T01:48:34;97089.97;;;1.06;51.22
11810;BME280;5962;41.566;23.734;2024-01-30T01:51:03;97093.38;;;1.07;51.41
11810;BME280;5962;41.566;23.734;2024-01-30T01:53:32;97095.03;;;1.08;51.09
11810;BME280;5962;41.566;23.734;2024-01-30T01:56:00;97093.81;;;1.02;51.59
11810;BME280;5962;41.566;23.734;2024-01-30T01:58:29;97094.66;;;0.93;51.38
11810;BME280;5962;41.566;23.734;2024-01-30T02:00:58;97109.47;;;0.93;51.72
11810;BME280;5962;41.566;23.734;2024-01-30T02:03:26;97105.47;;;0.89;51.71
11810;BME280;5962;41.566;23.734;2024-01-30T02:05:55;97112.06;;;0.93;51.53
11810;BME280;5962;41.566;23.734;2024-01-30T02:08:25;97113.19;;;0.91;51.70
11810;BME280;5962;41.566;23.734;2024-01-30T02:10:53;97110.84;;;0.88;51.78
11810;BME280;5962;41.566;23.734;2024-01-30T02:13:21;97099.72;;;0.95;51.02
11810;BME280;5962;41.566;23.734;2024-01-30T02:15:49;97105.47;;;0.89;51.53
11810;BME280;5962;41.566;23.734;2024-01-30T02:18:19;97095.34;;;0.77;51.36
11810;BME280;5962;41.566;23.734;2024-01-30T02:20:48;97106.59;;;0.87;51.42
11810;BME280;5962;41.566;23.734;2024-01-30T02:23:19;97115.53;;;0.75;51.72
11810;BME280;5962;41.566;23.734;2024-01-30T02:25:47;97095.47;;;0.75;51.99
11810;BME280;5962;41.566;23.734;2024-01-30T02:28:15;97092.75;;;0.77;51.29
11810;BME280;5962;41.566;23.734;2024-01-30T02:30:43;97099.03;;;0.74;51.43
11810;BME280;5962;41.566;23.734;2024-01-30T02:33:11;97099.59;;;0.78;51.72
11810;BME280;5962;41.566;23.734;2024-01-30T02:35:39;97099.03;;;0.84;51.40
11810;BME280;5962;41.566;23.734;2024-01-30T02:38:07;97102.34;;;0.76;51.42
11810;BME280;5962;41.566;23.734;2024-01-30T02:40:37;97099.47;;;0.79;51.70
11810;BME280;5962;41.566;23.734;2024-01-30T02:43:05;97094.38;;;0.78;51.42
11810;BME280;5962;41.566;23.734;2024-01-30T02:45:33;97093.69;;;0.76;52.01
11810;BME280;5962;41.566;23.734;2024-01-30T02:48:01;97091.63;;;0.79;51.83
11810;BME280;5962;41.566;23.734;2024-01-30T02:50:29;97090.41;;;0.74;51.80
11810;BME280;5962;41.566;23.734;2024-01-30T02:52:56;97094.25;;;0.70;51.90
11810;BME280;5962;41.566;23.734;2024-01-30T02:55:24;97095.88;;;0.71;52.35
11810;BME280;5962;41.566;23.734;2024-01-30T02:57:54;97100.72;;;0.66;52.45
11810;BME280;5962;41.566;23.734;2024-01-30T03:00:22;97100.03;;;0.64;52.24
11810;BME280;5962;41.566;23.734;2024-01-30T03:02:50;97090.41;;;0.74;52.17
11810;BME280;5962;41.566;23.734;2024-01-30T03:05:18;97087.53;;;0.67;51.93
11810;BME280;5962;41.566;23.734;2024-01-30T03:07:46;97094.94;;;0.72;52.13
11810;BME280;5962;41.566;23.734;2024-01-30T03:10:14;97101.78;;;0.73;52.38
11810;BME280;5962;41.566;23.734;2024-01-30T03:12:42;97095.88;;;0.71;51.68
11810;BME280;5962;41.566;23.734;2024-01-30T03:15:11;97097.41;;;0.64;52.50
11810;BME280;5962;41.566;23.734;2024-01-30T03:17:40;97104.66;;;0.70;52.21
11810;BME280;5962;41.566;23.734;2024-01-30T03:20:09;97103.31;;;0.66;52.55
11810;BME280;5962;41.566;23.734;2024-01-30T03:22:37;97099.34;;;0.62;52.40
11810;BME280;5962;41.566;23.734;2024-01-30T03:25:06;97098.09;;;0.56;53.16
11810;BME280;5962;41.566;23.734;2024-01-30T03:27:34;97100.56;;;0.48;53.05
11810;BME280;5962;41.566;23.734;2024-01-30T03:30:02;97091.50;;;0.52;52.65
11810;BME280;5962;41.566;23.734;2024-01-30T03:32:32;97093.16;;;0.53;52.85
11810;BME280;5962;41.566;23.734;2024-01-30T03:35:00;97098.22;;;0.55;52.99
11810;BME280;5962;41.566;23.734;2024-01-30T03:37:28;97103.84;;;0.60;53.29
11810;BME280;5962;41.566;23.734;2024-01-30T03:39:56;97105.38;;;0.53;53.02
11810;BME280;5962;41.566;23.734;2024-01-30T03:42:24;97100.56;;;0.48;53.11
11810;BME280;5962;41.566;23.734;2024-01-30T03:44:52;97106.88;;;0.46;53.14
11810;BME280;5962;41.566;23.734;2024-01-30T03:47:21;97096.28;;;0.47;53.63
11810;BME280;5962;41.566;23.734;2024-01-30T03:49:50;97100.69;;;0.47;53.39
11810;BME280;5962;41.566;23.734;2024-01-30T03:52:18;97097.41;;;0.54;53.33
11810;BME280;5962;41.566;23.734;2024-01-30T03:54:46;97107.00;;;0.44;53.84
11810;BME280;5962;41.566;23.734;2024-01-30T03:57:14;97097.13;;;0.48;53.82
11810;BME280;5962;41.566;23.734;2024-01-30T03:59:42;97103.44;;;0.55;53.03
11810;BME280;5962;41.566;23.734;2024-01-30T04:02:10;97106.72;;;0.47;53.29
11810;BME280;5962;41.566;23.734;2024-01-30T04:04:38;97115.66;;;0.45;53.72
11810;BME280;5962;41.566;23.734;2024-01-30T04:07:08;97108.09;;;0.42;54.21
11810;BME280;5962;41.566;23.734;2024-01-30T04:09:38;97110.31;;;0.37;53.48
11810;BME280;5962;41.566;23.734;2024-01-30T04:12:06;97112.88;;;0.27;53.74
11810;BME280;5962;41.566;23.734;2024-01-30T04:14:34;97105.63;;;0.31;53.86
11810;BME280;5962;41.566;23.734;2024-01-30T04:17:03;97098.06;;;0.28;53.58
11810;BME280;5962;41.566;23.734;2024-01-30T04:19:31;97105.06;;;0.27;54.46
11810;BME280;5962;41.566;23.734;2024-01-30T04:21:59;97105.22;;;0.26;53.95
11810;BME280;5962;41.566;23.734;2024-01-30T04:24:28;97106.56;;;0.30;54.11
11810;BME280;5962;41.566;23.734;2024-01-30T04:26:56;97113.69;;;0.28;54.06
11810;BME280;5962;41.566;23.734;2024-01-30T04:29:24;97108.91;;;0.23;53.89
11810;BME280;5962;41.566;23.734;2024-01-30T04:31:52;97102.44;;;0.18;54.72
11810;BME280;5962;41.566;23.734;2024-01-30T04:34:20;97109.31;;;0.19;54.02
11810;BME280;5962;41.566;23.734;2024-01-30T04:36:48;97115.06;;;0.22;53.93
11810;BME280;5962;41.566;23.734;2024-01-30T04:39:15;97117.28;;;0.17;54.21
11810;BME280;5962;41.566;23.734;2024-01-30T04:41:45;97120.53;;;0.10;54.29
11810;BME280;5962;41.566;23.734;2024-01-30T04:44:13;97117.53;;;0.14;54.29
11810;BME280;5962;41.566;23.734;2024-01-30T04:46:41;97116.56;;;0.15;54.74
11810;BME280;5962;41.566;23.734;2024-01-30T04:49:09;97116.56;;;0.15;54.28
11810;BME280;5962;41.566;23.734;2024-01-30T04:51:37;97117.69;;;0.13;54.26
11810;BME280;5962;41.566;23.734;2024-01-30T04:54:05;97119.72;;;0.19;54.36
11810;BME280;5962;41.566;23.734;2024-01-30T04:56:33;97121.53;;;0.18;53.83
11810;BME280;5962;41.566;23.734;2024-01-30T04:59:03;97120.81;;;0.07;54.60
11810;BME280;5962;41.566;23.734;2024-01-30T05:01:31;97127.53;;;0.00;54.98
11810;BME280;5962;41.566;23.734;2024-01-30T05:03:59;97124.78;;;0.01;54.59
11810;BME280;5962;41.566;23.734;2024-01-30T05:06:27;97130.13;;;0.00;55.15
11810;BME280;5962;41.566;23.734;2024-01-30T05:08:55;97124.03;;;-0.10;54.76
11810;BME280;5962;41.566;23.734;2024-01-30T05:11:23;97131.34;;;-0.04;54.59
11810;BME280;5962;41.566;23.734;2024-01-30T05:13:51;97130.19;;;-0.11;54.76
11810;BME280;5962;41.566;23.734;2024-01-30T05:16:21;97121.31;;;0.01;54.61
11810;BME280;5962;41.566;23.734;2024-01-30T05:18:49;97120.13;;;0.05;54.39
11810;BME280;5962;41.566;23.734;2024-01-30T05:21:17;97122.44;;;0.08;54.40
11810;BME280;5962;41.566;23.734;2024-01-30T05:23:45;97133.28;;;0.03;54.48
11810;BME280;5962;41.566;23.734;2024-01-30T05:26:13;97139.03;;;0.07;54.26
11810;BME280;5962;41.566;23.734;2024-01-30T05:28:41;97151.63;;;0.02;54.45
11810;BME280;5962;41.566;23.734;2024-01-30T05:31:11;97142.09;;;0.12;53.72
11810;BME280;5962;41.566;23.734;2024-01-30T05:33:40;97132.31;;;0.04;54.10
11810;BME280;5962;41.566;23.734;2024-01-30T05:36:11;97145.66;;;0.11;53.85
11810;BME280;5962;41.566;23.734;2024-01-30T05:38:39;97143.72;;;0.13;53.82
11810;BME280;5962;41.566;23.734;2024-01-30T05:41:08;97134.09;;;0.04;54.41
11810;BME280;5962;41.566;23.734;2024-01-30T05:43:36;97142.09;;;0.12;54.54
11810;BME280;5962;41.566;23.734;2024-01-30T05:46:04;97140.53;;;0.09;54.32
11810;BME280;5962;41.566;23.734;2024-01-30T05:48:32;97150.56;;;0.04;54.27
11810;BME280;5962;41.566;23.734;2024-01-30T05:51:03;97155.06;;;0.02;54.16
11810;BME280;5962;41.566;23.734;2024-01-30T05:53:31;97160.69;;;0.07;53.97
11810;BME280;5962;41.566;23.734;2024-01-30T05:56:00;97159.47;;;0.11;53.91
11810;BME280;5962;41.566;23.734;2024-01-30T05:58:28;97158.97;;;0.17;53.60
11810;BME280;5962;41.566;23.734;2024-01-30T06:00:57;97162.94;;;0.21;53.66
11810;BME280;5962;41.566;23.734;2024-01-30T06:03:25;97161.41;;;0.19;53.65
11810;BME280;5962;41.566;23.734;2024-01-30T06:05:53;97164.97;;;0.18;53.76
11810;BME280;5962;41.566;23.734;2024-01-30T06:08:23;97163.34;;;0.17;53.80
11810;BME280;5962;41.566;23.734;2024-01-30T06:10:51;97163.06;;;0.20;53.53
11810;BME280;5962;41.566;23.734;2024-01-30T06:13:19;97161.56;;;0.27;53.61
11810;BME280;5962;41.566;23.734;2024-01-30T06:15:47;97162.53;;;0.35;52.83
11810;BME280;5962;41.566;23.734;2024-01-30T06:18:15;97161.47;;;0.38;53.33
11810;BME280;5962;41.566;23.734;2024-01-30T06:20:43;97170.81;;;0.40;52.90
11810;BME280;5962;41.566;23.734;2024-01-30T06:23:12;97167.09;;;0.43;53.13
11810;BME280;5962;41.566;23.734;2024-01-30T06:25:42;97166.13;;;0.44;53.07
11810;BME280;5962;41.566;23.734;2024-01-30T06:28:10;97171.63;;;0.50;52.56
11810;BME280;5962;41.566;23.734;2024-01-30T06:30:38;97175.19;;;0.49;52.63
11810;BME280;5962;41.566;23.734;2024-01-30T06:33:06;97177.28;;;0.55;52.47
11810;BME280;5962;41.566;23.734;2024-01-30T06:35:34;97173.03;;;0.64;51.91
11810;BME280;5962;41.566;23.734;2024-01-30T06:38:07;97173.16;;;0.62;52.45
11810;BME280;5962;41.566;23.734;2024-01-30T06:40:36;97171.66;;;0.69;51.63
11810;BME280;5962;41.566;23.734;2024-01-30T06:43:05;97164.13;;;0.76;52.01
11810;BME280;5962;41.566;23.734;2024-01-30T06:45:34;97166.47;;;0.79;52.08
11810;BME280;5962;41.566;23.734;2024-01-30T06:48:02;97176.47;;;0.83;52.08
11810;BME280;5962;41.566;23.734;2024-01-30T06:50:30;97173.59;;;0.86;51.76
11810;BME280;5962;41.566;23.734;2024-01-30T06:52:58;97176.88;;;0.97;50.57
11810;BME280;5962;41.566;23.734;2024-01-30T06:55:26;97173.19;;;1.00;50.79
11810;BME280;5962;41.566;23.734;2024-01-30T06:57:54;97180.59;;;1.04;50.33
11810;BME280;5962;41.566;23.734;2024-01-30T07:00:24;97172.34;;;1.09;50.65
11810;BME280;5962;41.566;23.734;2024-01-30T07:02:52;97182.09;;;1.16;50.53
11810;BME280;5962;41.566;23.734;2024-01-30T07:05:19;97171.94;;;1.23;50.61
11810;BME280;5962;41.566;23.734;2024-01-30T07:07:48;97176.03;;;1.35;49.79
11810;BME280;5962;41.566;23.734;2024-01-30T07:10:16;97170.66;;;1.36;49.64
11810;BME280;5962;41.566;23.734;2024-01-30T07:12:44;97171.50;;;1.37;49.84
11810;BME280;5962;41.566;23.734;2024-01-30T07:15:12;97169.00;;;1.45;49.48
11810;BME280;5962;41.566;23.734;2024-01-30T07:17:44;97176.28;;;1.41;49.14
11810;BME280;5962;41.566;23.734;2024-01-30T07:20:12;97176.97;;;1.43;49.15
11810;BME280;5962;41.566;23.734;2024-01-30T07:22:41;97176.84;;;1.45;49.89
11810;BME280;5962;41.566;23.734;2024-01-30T07:25:10;97179.72;;;1.42;49.98
11810;BME280;5962;41.566;23.734;2024-01-30T07:27:38;97181.50;;;1.51;49.38
11810;BME280;5962;41.566;23.734;2024-01-30T07:30:07;97184.81;;;1.53;49.75
11810;BME280;5962;41.566;23.734;2024-01-30T07:32:35;97184.34;;;1.67;49.49
11810;BME280;5962;41.566;23.734;2024-01-30T07:35:04;97183.34;;;1.77;49.21
11810;BME280;5962;41.566;23.734;2024-01-30T07:37:33;97192.38;;;1.92;48.29
11810;BME280;5962;41.566;23.734;2024-01-30T07:40:01;97187.16;;;1.92;48.72
11810;BME280;5962;41.566;23.734;2024-01-30T07:42:30;97181.34;;;1.98;48.36
11810;BME280;5962;41.566;23.734;2024-01-30T07:44:58;97181.63;;;1.95;48.59
11810;BME280;5962;41.566;23.734;2024-01-30T07:47:26;97191.94;;;1.96;48.51
11810;BME280;5962;41.566;23.734;2024-01-30T07:49:54;97186.94;;;2.12;47.64
11810;BME280;5962;41.566;23.734;2024-01-30T07:52:23;97205.75;;;2.16;47.61
11810;BME280;5962;41.566;23.734;2024-01-30T07:54:51;97191.69;;;2.26;47.13
11810;BME280;5962;41.566;23.734;2024-01-30T07:57:19;97193.56;;;2.34;46.88
11810;BME280;5962;41.566;23.734;2024-01-30T07:59:47;97196.59;;;2.39;46.71
11810;BME280;5962;41.566;23.734;2024-01-30T08:02:15;97188.88;;;2.37;46.71
11810;BME280;5962;41.566;23.734;2024-01-30T08:04:43;97190.91;;;2.43;46.92
11810;BME280;5962;41.566;23.734;2024-01-30T08:07:15;97191.72;;;2.44;46.62
11810;BME280;5962;41.566;23.734;2024-01-30T08:09:45;97188.28;;;2.43;46.52
11810;BME280;5962;41.566;23.734;2024-01-30T08:12:13;97192.84;;;2.41;46.01
11810;BME280;5962;41.566;23.734;2024-01-30T08:14:41;97179.75;;;2.41;46.29
11810;BME280;5962;41.566;23.734;2024-01-30T08:17:09;97183.06;;;2.43;46.14
11810;BME280;5962;41.566;23.734;2024-01-30T08:19:37;97182.78;;;2.46;46.23
11810;BME280;5962;41.566;23.734;2024-01-30T08:22:05;97178.50;;;2.45;45.94
11810;BME280;5962;41.566;23.734;2024-01-30T08:24:33;97181.50;;;2.50;45.94
11810;BME280;5962;41.566;23.734;2024-01-30T08:27:02;97187.28;;;2.54;45.24
11810;BME280;5962;41.566;23.734;2024-01-30T08:29:31;97178.97;;;2.58;45.38
11810;BME280;5962;41.566;23.734;2024-01-30T08:31:59;97194.75;;;2.66;45.57
11810;BME280;5962;41.566;23.734;2024-01-30T08:34:27;97194.06;;;2.64;45.04
11810;BME280;5962;41.566;23.734;2024-01-30T08:36:55;97174.06;;;2.73;45.15
11810;BME280;5962;41.566;23.734;2024-01-30T08:39:24;97199.31;;;2.81;45.12
11810;BME280;5962;41.566;23.734;2024-01-30T08:41:52;97187.59;;;2.85;44.91
11810;BME280;5962;41.566;23.734;2024-01-30T08:44:21;97177.34;;;2.92;45.03
11810;BME280;5962;41.566;23.734;2024-01-30T08:46:49;97184.41;;;2.91;44.28
11810;BME280;5962;41.566;23.734;2024-01-30T08:49:19;97161.41;;;2.85;44.52
11810;BME280;5962;41.566;23.734;2024-01-30T08:51:47;97184.22;;;2.93;44.84
11810;BME280;5962;41.566;23.734;2024-01-30T08:54:17;97190.66;;;2.98;44.49
11810;BME280;5962;41.566;23.734;2024-01-30T08:56:45;97168.63;;;3.01;44.08
11810;BME280;5962;41.566;23.734;2024-01-30T08:59:13;97185.13;;;3.01;44.26
11810;BME280;5962;41.566;23.734;2024-01-30T09:01:42;97161.19;;;2.96;44.19
11810;BME280;5962;41.566;23.734;2024-01-30T09:04:14;97167.63;;;3.02;44.26
11810;BME280;5962;41.566;23.734;2024-01-30T09:06:42;97168.28;;;3.04;44.27
11810;BME280;5962;41.566;23.734;2024-01-30T09:09:10;97181.47;;;3.12;44.13
11810;BME280;5962;41.566;23.734;2024-01-30T09:11:38;97173.53;;;3.21;43.77
11810;BME280;5962;41.566;23.734;2024-01-30T09:14:06;97186.31;;;3.24;43.78
11810;BME280;5962;41.566;23.734;2024-01-30T09:16:35;97166.50;;;3.22;43.49
11810;BME280;5962;41.566;23.734;2024-01-30T09:19:04;97166.28;;;3.15;43.89
11810;BME280;5962;41.566;23.734;2024-01-30T09:21:32;97141.16;;;3.05;43.69
11810;BME280;5962;41.566;23.734;2024-01-30T09:24:02;97158.38;;;3.07;43.67
11810;BME280;5962;41.566;23.734;2024-01-30T09:26:31;97137.56;;;3.06;43.42
11810;BME280;5962;41.566;23.734;2024-01-30T09:28:59;97129.13;;;3.12;43.81
11810;BME280;5962;41.566;23.734;2024-01-30T09:31:27;97140.31;;;3.22;43.57
11810;BME280;5962;41.566;23.734;2024-01-30T09:33:55;97139.84;;;3.26;43.36
11810;BME280;5962;41.566;23.734;2024-01-30T09:36:24;97140.34;;;3.30;43.56
11810;BME280;5962;41.566;23.734;2024-01-30T09:38:53;97149.88;;;3.31;43.35
11810;BME280;5962;41.566;23.734;2024-01-30T09:41:24;97144.28;;;3.26;43.48
11810;BME280;5962;41.566;23.734;2024-01-30T09:43:53;97135.00;;;3.31;43.42
11810;BME280;5962;41.566;23.734;2024-01-30T09:46:23;97146.94;;;3.34;43.38
11810;BME280;5962;41.566;23.734;2024-01-30T09:48:55;97115.06;;;3.38;43.40
11810;BME280;5962;41.566;23.734;2024-01-30T09:51:25;97122.31;;;3.44;43.52
11810;BME280;5962;41.566;23.734;2024-01-30T09:53:54;97146.19;;;3.41;43.11
11810;BME280;5962;41.566;23.734;2024-01-30T09:56:23;97102.50;;;3.42;43.44
11810;BME280;5962;41.566;23.734;2024-01-30T09:58:51;97126.63;;;3.53;43.20
11810;BME280;5962;41.566;23.734;2024-01-30T10:01:19;97116.50;;;3.58;42.95
11810;BME280;5962;41.566;23.734;2024-01-30T10:03:50;97100.78;;;3.58;42.46
11810;BME280;5962;41.566;23.734;2024-01-30T10:06:19;97101.09;;;3.55;42.75
11810;BME280;5962;41.566;23.734;2024-01-30T10:08:49;97090.00;;;3.61;42.90
11810;BME280;5962;41.566;23.734;2024-01-30T10:11:16;97092.47;;;3.70;42.57
11810;BME280;5962;41.566;23.734;2024-01-30T10:13:44;97090.41;;;3.74;42.75
11810;BME280;5962;41.566;23.734;2024-01-30T10:16:13;97073.03;;;3.81;42.53
11810;BME280;5962;41.566;23.734;2024-01-30T10:18:41;97071.56;;;3.78;42.49
11810;BME280;5962;41.566;23.734;2024-01-30T10:21:10;97071.91;;;3.83;42.49
11810;BME280;5962;41.566;23.734;2024-01-30T10:23:38;97081.22;;;3.78;42.29
11810;BME280;5962;41.566;23.734;2024-01-30T10:26:08;97075.66;;;3.81;41.74
11810;BME280;5962;41.566;23.734;2024-01-30T10:28:36;97071.59;;;3.86;42.07
11810;BME280;5962;41.566;23.734;2024-01-30T10:31:04;97051.78;;;3.92;42.12
11810;BME280;5962;41.566;23.734;2024-01-30T10:33:32;97041.97;;;3.94;41.83
11810;BME280;5962;41.566;23.734;2024-01-30T10:36:02;97049.53;;;3.97;41.90
11810;BME280;5962;41.566;23.734;2024-01-30T10:38:32;97063.63;;;4.04;41.48
11810;BME280;5962;41.566;23.734;2024-01-30T10:41:01;97033.94;;;3.95;40.91
11810;BME280;5962;41.566;23.734;2024-01-30T10:43:33;97058.38;;;4.04;41.06
11810;BME280;5962;41.566;23.734;2024-01-30T10:46:08;97038.56;;;4.09;41.32
11810;BME280;5962;41.566;23.734;2024-01-30T10:48:42;97026.13;;;4.11;41.49
11810;BME280;5962;41.566;23.734;2024-01-30T10:51:11;97026.94;;;4.12;41.46
11810;BME280;5962;41.566;23.734;2024-01-30T10:53:41;97017.63;;;4.17;41.41
11810;BME280;5962;41.566;23.734;2024-01-30T10:56:12;96996.31;;;4.28;41.73
11810;BME280;5962;41.566;23.734;2024-01-30T10:58:42;97014.53;;;4.46;40.76
11810;BME280;5962;41.566;23.734;2024-01-30T11:01:10;96997.00;;;4.54;40.96
11810;BME280;5962;41.566;23.734;2024-01-30T11:03:38;97040.47;;;4.57;40.08
11810;BME280;5962;41.566;23.734;2024-01-30T11:06:10;97009.16;;;4.55;39.99
11810;BME280;5962;41.566;23.734;2024-01-30T11:08:38;96980.94;;;4.57;40.33
11810;BME280;5962;41.566;23.734;2024-01-30T11:11:09;97008.81;;;4.58;40.12
11810;BME280;5962;41.566;23.734;2024-01-30T11:13:38;96987.66;;;4.60;40.36
11810;BME280;5962;41.566;23.734;2024-01-30T11:16:11;96963.72;;;4.63;40.05
11810;BME280;5962;41.566;23.734;2024-01-30T11:18:39;96952.56;;;4.68;40.68
11810;BME280;5962;41.566;23.734;2024-01-30T11:21:07;96951.56;;;4.77;40.95
11810;BME280;5962;41.566;23.734;2024-01-30T11:23:35;96979.59;;;4.93;39.76
11810;BME280;5962;41.566;23.734;2024-01-30T11:26:04;96948.75;;;4.87;39.61
11810;BME280;5962;41.566;23.734;2024-01-30T11:28:33;96949.88;;;5.00;39.73
11810;BME280;5962;41.566;23.734;2024-01-30T11:31:05;96955.94;;;5.09;39.41
11810;BME280;5962;41.566;23.734;2024-01-30T11:33:36;96952.59;;;5.23;39.17
11810;BME280;5962;41.566;23.734;2024-01-30T11:36:05;96961.47;;;5.22;39.19
11810;BME280;5962;41.566;23.734;2024-01-30T11:38:34;96961.97;;;5.17;38.80
11810;BME280;5962;41.566;23.734;2024-01-30T11:41:03;96906.91;;;4.93;39.02
11810;BME280;5962;41.566;23.734;2024-01-30T11:43:32;96950.16;;;5.21;38.98
11810;BME280;5962;41.566;23.734;2024-01-30T11:46:01;96960.16;;;5.26;38.89
11810;BME280;5962;41.566;23.734;2024-01-30T11:48:30;96954.44;;;5.22;39.06
11810;BME280;5962;41.566;23.734;2024-01-30T11:50:59;96944.41;;;5.26;38.82
11810;BME280;5962;41.566;23.734;2024-01-30T11:53:27;96933.03;;;5.33;39.05
11810;BME280;5962;41.566;23.734;2024-01-30T11:55:55;96927.41;;;5.36;38.50
11810;BME280;5962;41.566;23.734;2024-01-30T11:58:24;96949.88;;;5.47;38.42
11810;BME280;5962;41.566;23.734;2024-01-30T12:00:53;96934.47;;;5.44;38.53
11810;BME280;5962;41.566;23.734;2024-01-30T12:03:22;96944.03;;;5.37;37.78
11810;BME280;5962;41.566;23.734;2024-01-30T12:05:55;96913.47;;;5.36;38.22
11810;BME280;5962;41.566;23.734;2024-01-30T12:08:25;96916.75;;;5.38;37.97
11810;BME280;5962;41.566;23.734;2024-01-30T12:10:57;96911.31;;;5.39;37.94
11810;BME280;5962;41.566;23.734;2024-01-30T12:13:28;96911.00;;;5.42;37.66
11810;BME280;5962;41.566;23.734;2024-01-30T12:15:57;96912.44;;;5.45;38.49
11810;BME280;5962;41.566;23.734;2024-01-30T12:18:26;96949.38;;;5.51;37.02
11810;BME280;5962;41.566;23.734;2024-01-30T12:20:57;96913.75;;;5.49;37.38
11810;BME280;5962;41.566;23.734;2024-01-30T12:23:28;96903.78;;;5.36;36.81
11810;BME280;5962;41.566;23.734;2024-01-30T12:25:56;96908.16;;;5.52;37.58
11810;BME280;5962;41.566;23.734;2024-01-30T12:28:25;96925.69;;;5.59;37.37
11810;BME280;5962;41.566;23.734;2024-01-30T12:30:55;96921.44;;;5.58;36.59
11810;BME280;5962;41.566;23.734;2024-01-30T12:33:26;96909.59;;;5.62;37.17
11810;BME280;5962;41.566;23.734;2024-01-30T12:35:55;96923.53;;;5.62;36.48
11810;BME280;5962;41.566;23.734;2024-01-30T12:38:24;96901.78;;;5.46;36.28
11810;BME280;5962;41.566;23.734;2024-01-30T12:40:55;96929.34;;;5.50;36.79
11810;BME280;5962;41.566;23.734;2024-01-30T12:43:25;96921.97;;;5.46;36.36
11810;BME280;5962;41.566;23.734;2024-01-30T12:45:56;96903.97;;;5.35;36.88
11810;BME280;5962;41.566;23.734;2024-01-30T12:48:25;96920.88;;;5.32;36.64
11810;BME280;5962;41.566;23.734;2024-01-30T12:50:53;96912.81;;;5.34;36.93
11810;BME280;5962;41.566;23.734;2024-01-30T12:53:21;96921.53;;;5.34;37.48
11810;BME280;5962;41.566;23.734;2024-01-30T12:55:49;96933.13;;;5.48;37.32
11810;BME280;5962;41.566;23.734;2024-01-30T12:58:19;96906.53;;;5.51;37.15
11810;BME280;5962;41.566;23.734;2024-01-30T13:00:47;96923.75;;;5.53;37.49
11810;BME280;5962;41.566;23.734;2024-01-30T13:03:15;96909.16;;;5.51;36.81
11810;BME280;5962;41.566;23.734;2024-01-30T13:05:43;96913.41;;;5.52;37.49
11810;BME280;5962;41.566;23.734;2024-01-30T13:08:11;96913.88;;;5.55;36.69
11810;BME280;5962;41.566;23.734;2024-01-30T13:10:39;96948.72;;;5.57;36.50
11810;BME280;5962;41.566;23.734;2024-01-30T13:13:07;96914.91;;;5.46;36.92
11810;BME280;5962;41.566;23.734;2024-01-30T13:15:38;96939.91;;;5.42;36.54
11810;BME280;5962;41.566;23.734;2024-01-30T13:18:06;96894.88;;;5.45;36.79